createdAt,value
2018-12-07T00:03:03.443Z,7.96
2018-12-07T00:08:58.439Z,7.03
2018-12-07T00:14:53.472Z,7.43
2018-12-07T00:20:48.454Z,6.46
2018-12-07T00:26:43.479Z,8.28
2018-12-07T00:32:38.446Z,18.74
2018-12-07T00:38:33.453Z,14.64
2018-12-07T00:44:28.488Z,10.41
2018-12-07T00:50:23.461Z,9.82
2018-12-07T00:56:18.468Z,7.82
2018-12-07T01:02:13.487Z,9.43
2018-12-07T01:08:08.466Z,7.88
2018-12-07T01:14:03.467Z,9.06
2018-12-07T01:19:58.495Z,10.04
2018-12-07T01:25:53.490Z,11.74
2018-12-07T01:31:48.487Z,13.49
2018-12-07T01:37:43.518Z,10.53
2018-12-07T01:43:38.494Z,13.88
2018-12-07T01:49:33.515Z,16.77
2018-12-07T01:55:28.512Z,15.13
2018-12-07T02:01:23.534Z,15.46
2018-12-07T02:07:18.516Z,14.89
2018-12-07T02:13:13.534Z,13.66
2018-12-07T02:19:08.507Z,13.54
2018-12-07T02:25:03.528Z,15.51
2018-12-07T02:30:58.527Z,13.11
2018-12-07T02:36:53.521Z,16.55
2018-12-07T02:42:48.525Z,14.52
2018-12-07T02:48:43.623Z,14.3
2018-12-07T02:54:38.546Z,14.43
2018-12-07T03:00:33.533Z,13.38
2018-12-07T03:06:28.559Z,21.34
2018-12-07T03:12:23.530Z,21.19
2018-12-07T03:18:18.541Z,17.46
2018-12-07T03:24:13.530Z,22.1
2018-12-07T03:30:08.547Z,17.44
2018-12-07T03:36:03.544Z,28.94
2018-12-07T03:41:58.556Z,19.56
2018-12-07T03:47:53.556Z,21.46
2018-12-07T03:53:48.580Z,20.24
2018-12-07T03:59:43.583Z,18.63
2018-12-07T04:05:38.638Z,18.79
2018-12-07T04:11:33.610Z,17.51
2018-12-07T04:17:28.564Z,21.49
2018-12-07T04:23:23.563Z,18.16
2018-12-07T04:29:18.612Z,20.14
2018-12-07T04:35:13.589Z,16.37
2018-12-07T04:41:08.573Z,21.46
2018-12-07T04:47:03.666Z,17.83
2018-12-07T04:52:58.589Z,17.28
2018-12-07T04:58:53.643Z,18.94
2018-12-07T05:04:48.637Z,18.8
2018-12-07T05:10:43.595Z,18.04
2018-12-07T05:16:38.589Z,13.96
2018-12-07T05:22:33.610Z,15.04
2018-12-07T05:28:28.610Z,18.63
2018-12-07T05:34:23.627Z,16.74
2018-12-07T05:40:18.645Z,19.68
2018-12-07T05:46:13.640Z,20.85
2018-12-07T05:52:08.636Z,21.01
2018-12-07T05:58:03.616Z,18.39
2018-12-07T06:03:58.617Z,16.94
2018-12-07T06:09:53.637Z,14.77
2018-12-07T06:15:48.611Z,22.03
2018-12-07T06:21:43.623Z,22.47
2018-12-07T06:27:38.620Z,18.08
2018-12-07T06:33:33.635Z,20.29
2018-12-07T06:39:28.619Z,18.7
2018-12-07T06:45:23.653Z,19.78
2018-12-07T06:51:18.641Z,26.95
2018-12-07T06:57:13.663Z,20.81
2018-12-07T07:03:08.658Z,23.66
2018-12-07T07:09:03.637Z,21.08
2018-12-07T07:14:58.656Z,19.2
2018-12-07T07:20:53.669Z,21.82
2018-12-07T07:26:48.666Z,18.7
2018-12-07T07:32:43.653Z,23.6
2018-12-07T07:38:38.679Z,21.8
2018-12-07T07:44:33.657Z,19.96
2018-12-07T07:50:28.657Z,23.85
2018-12-07T07:56:23.671Z,18.34
2018-12-07T08:02:18.691Z,27.49
2018-12-07T08:08:13.698Z,36.51
2018-12-07T08:14:08.678Z,38.88
2018-12-07T08:20:03.673Z,53.03
2018-12-07T08:25:58.689Z,53.46
2018-12-07T08:31:53.684Z,70.26
2018-12-07T08:37:48.715Z,92.38
2018-12-07T08:43:43.696Z,84.27
2018-12-07T08:49:38.716Z,83.66
2018-12-07T08:55:33.719Z,86.23
2018-12-07T09:01:28.725Z,129.47
2018-12-07T09:07:23.714Z,125.66
2018-12-07T09:13:18.707Z,114.96
2018-12-07T09:19:13.724Z,96.82
2018-12-07T09:25:08.745Z,76.74
2018-12-07T09:31:03.712Z,110.06
2018-12-07T09:36:58.743Z,158.63
2018-12-07T09:42:53.730Z,142.67
2018-12-07T09:48:48.733Z,157.97
2018-12-07T09:54:43.749Z,112.64
2018-12-07T10:00:38.734Z,24.23
2018-12-07T10:06:33.734Z,131.99
2018-12-07T10:12:28.781Z,106.47
2018-12-07T10:18:23.768Z,93.91
2018-12-07T10:24:18.762Z,107.81
2018-12-07T10:30:13.753Z,95.74
2018-12-07T10:36:08.754Z,85.89
2018-12-07T10:42:03.765Z,213.66
2018-12-07T10:47:58.762Z,472.66
2018-12-07T10:53:53.790Z,401.35
2018-12-07T10:59:48.782Z,433.73
2018-12-07T11:05:43.765Z,159.06
2018-12-07T11:11:38.775Z,131
2018-12-07T11:17:33.792Z,91.47
2018-12-07T11:23:28.787Z,96.19
2018-12-07T11:29:23.793Z,91.22
2018-12-07T11:35:18.828Z,87.31
2018-12-07T11:41:13.781Z,94.05
2018-12-07T11:47:08.807Z,80.57
2018-12-07T11:53:03.804Z,79.86
2018-12-07T11:58:58.805Z,79.75
2018-12-07T12:04:53.800Z,71.64
2018-12-07T12:10:48.804Z,72.92
2018-12-07T12:16:43.816Z,60.8
2018-12-07T12:22:38.827Z,58.22
2018-12-07T12:28:33.838Z,56.43
2018-12-07T12:34:28.806Z,69.97
2018-12-07T12:40:23.847Z,61.29
2018-12-07T12:46:18.843Z,65.44
2018-12-07T12:52:13.833Z,77.76
2018-12-07T12:58:08.851Z,93.43
2018-12-07T13:04:03.837Z,63.8
2018-12-07T13:09:58.862Z,48.17
2018-12-07T13:15:53.866Z,52.16
2018-12-07T13:21:48.858Z,53.94
2018-12-07T13:27:43.857Z,44.59
2018-12-07T13:33:38.855Z,149.2
2018-12-07T13:39:33.933Z,55.99
2018-12-07T13:45:29.000Z,57.87
2018-12-07T13:51:24.140Z,52.24
2018-12-07T13:57:18.953Z,61.4
2018-12-07T14:03:13.952Z,57.87
2018-12-07T14:09:09.019Z,62.15
2018-12-07T14:15:03.901Z,72
2018-12-07T14:20:59.001Z,73.07
2018-12-07T14:26:59.451Z,79.25
2018-12-07T14:32:48.932Z,80.39
2018-12-07T14:38:43.960Z,62.87
2018-12-07T14:44:38.935Z,70.58
2018-12-07T14:50:33.899Z,57.04
2018-12-07T14:56:29.041Z,47
2018-12-07T15:02:24.019Z,45.7
2018-12-07T15:08:19.109Z,57.96
2018-12-07T15:14:13.979Z,71.56
2018-12-07T15:20:09.089Z,128.2
2018-12-07T15:26:03.959Z,147.75
2018-12-07T15:31:58.924Z,124.62
2018-12-07T15:37:54.265Z,63.48
2018-12-07T15:43:48.991Z,74.08
2018-12-07T15:49:44.108Z,75.81
2018-12-07T15:55:39.096Z,83.32
2018-12-07T16:01:34.156Z,70.93
2018-12-07T16:07:29.235Z,59.98
2018-12-07T16:13:23.997Z,69.87
2018-12-07T16:19:19.192Z,65.79
2018-12-07T16:25:13.989Z,73.16
2018-12-07T16:31:09.013Z,74.87
2018-12-07T16:37:04.116Z,98.62
2018-12-07T16:42:59.010Z,72.79
2018-12-07T16:48:54.025Z,62.2
2018-12-07T16:54:49.009Z,70.36
2018-12-07T17:00:44.019Z,72.02
2018-12-07T17:06:39.006Z,75.88
2018-12-07T17:12:34.254Z,70.35
2018-12-07T17:18:29.201Z,83.74
2018-12-07T17:24:24.091Z,83.79
2018-12-07T17:30:19.051Z,77.21
2018-12-07T17:36:14.097Z,86.92
2018-12-07T17:42:09.109Z,81.38
2018-12-07T17:48:04.044Z,140.57
2018-12-07T17:53:59.069Z,101.37
2018-12-07T17:59:54.065Z,85.3
2018-12-07T18:05:49.126Z,72.54
2018-12-07T18:11:44.013Z,124.79
2018-12-07T18:17:39.017Z,94.61
2018-12-07T18:23:34.186Z,95.05
2018-12-07T18:29:29.039Z,78.86
2018-12-07T18:35:24.034Z,86.3
2018-12-07T18:41:19.100Z,91.53
2018-12-07T18:47:14.277Z,91.71
2018-12-07T18:53:09.164Z,85.96
2018-12-07T18:59:04.090Z,101.73
2018-12-07T19:04:59.087Z,101.9
2018-12-07T19:10:54.190Z,117.61
2018-12-07T19:16:49.095Z,128.16
2018-12-07T19:22:44.076Z,104.18
2018-12-07T19:28:39.424Z,107.18
2018-12-07T19:34:34.060Z,105.97
2018-12-07T19:40:29.408Z,113.86
2018-12-07T19:46:24.279Z,109.26
2018-12-07T19:52:19.355Z,272.28
2018-12-07T19:58:14.293Z,134.75
2018-12-07T20:04:09.171Z,125.53
2018-12-07T20:10:04.264Z,111.66
2018-12-07T20:15:59.103Z,120.99
2018-12-07T20:21:54.275Z,138.55
2018-12-07T20:27:49.103Z,136.78
2018-12-07T20:33:44.292Z,107.61
2018-12-07T20:39:39.223Z,122.83
2018-12-07T20:45:34.296Z,114.78
2018-12-07T20:51:29.274Z,119.02
2018-12-07T20:57:24.311Z,118.91
2018-12-07T21:03:19.171Z,120.89
2018-12-07T21:09:14.154Z,124.4
2018-12-07T21:15:09.149Z,122.88
2018-12-07T21:21:04.327Z,129.37
2018-12-07T21:27:00.011Z,129.39
2018-12-07T21:56:34.220Z,119.81
2018-12-07T21:56:34.563Z,77.59
2018-12-07T21:56:34.563Z,77.59
2018-12-07T21:56:34.563Z,77.59
2018-12-07T21:56:34.563Z,77.59
2018-12-07T22:20:14.465Z,72.63
2018-12-07T22:20:14.465Z,72.63
2018-12-07T22:20:14.465Z,72.63
2018-12-07T22:20:14.465Z,79.19
2018-12-07T22:26:09.166Z,75.64
2018-12-07T22:32:04.510Z,69.8
2018-12-07T22:37:59.186Z,69.79
2018-12-07T22:43:54.233Z,74.51
2018-12-07T22:49:49.187Z,66.37
2018-12-07T22:55:44.167Z,66.19
2018-12-07T23:01:39.232Z,69.61
2018-12-07T23:07:34.190Z,70.64
2018-12-07T23:13:29.192Z,64.73
2018-12-07T23:19:24.205Z,63.16
2018-12-07T23:25:19.197Z,68.57
2018-12-07T23:31:14.212Z,61.84
2018-12-07T23:37:09.223Z,55.59
